sensor_id;sensor_type;location;lat;lon;timestamp;pressure;altitude;pressure_sealevel;temperature;humidity
7824;BME280;3957;48.61947800;9.05303100;2022-08-21T00:00:30;96237.84;;;13.31;100.00
7824;BME280;3957;48.61947800;9.05303100;2022-08-21T00:01:52;96241.00;;;13.28;100.00
7824;BME280;3957;48.61947800;9.05303100;2022-08-21T00:03:12;96237.94;;;13.24;100.00
7824;BME280;3957;48.61947800;9.05303100;2022-08-21T00:04:33;96235.66;;;13.21;100.00
7824;BME280;3957;48.61947800;9.05303100;2022-08-21T00:05:54;96233.19;;;13.20;100.00
7824;BME280;3957;48.61947800;9.05303100;2022-08-21T00:07:15;96235.28;;;13.18;100.00
7824;BME280;3957;48.61947800;9.05303100;2022-08-21T00:08:36;96239.63;;;13.19;100.00
7824;BME280;3957;48.61947800;9.05303100;2022-08-21T00:09:57;96240.66;;;13.18;100.00
7824;BME280;3957;48.61947800;9.05303100;2022-08-21T00:11:18;96230.94;;;13.17;100.00
7824;BME280;3957;48.61947800;9.05303100;2022-08-21T00:12:40;96232.19;;;13.14;100.00
7824;BME280;3957;48.61947800;9.05303100;2022-08-21T00:14:01;96228.91;;;13.12;100.00
7824;BME280;3957;48.61947800;9.05303100;2022-08-21T00:15:27;96231.81;;;13.10;100.00
7824;BME280;3957;48.61947800;9.05303100;2022-08-21T00:16:48;96227.69;;;13.08;100.00
7824;BME280;3957;48.61947800;9.05303100;2022-08-21T00:18:10;96226.84;;;13.07;100.00
7824;BME280;3957;48.61947800;9.05303100;2022-08-21T00:19:33;96224.16;;;13.07;100.00
7824;BME280;3957;48.61947800;9.05303100;2022-08-21T00:20:54;96231.41;;;13.07;100.00
7824;BME280;3957;48.61947800;9.05303100;2022-08-21T00:22:15;96228.72;;;13.07;100.00
7824;BME280;3957;48.61947800;9.05303100;2022-08-21T00:23:36;96223.56;;;13.05;100.00
7824;BME280;3957;48.61947800;9.05303100;2022-08-21T00:24:56;96220.28;;;13.03;100.00
7824;BME280;3957;48.61947800;9.05303100;2022-08-21T00:26:17;96218.25;;;12.99;100.00
7824;BME280;3957;48.61947800;9.05303100;2022-08-21T00:27:39;96216.59;;;12.98;100.00
7824;BME280;3957;48.61947800;9.05303100;2022-08-21T00:29:03;96211.44;;;12.96;100.00
7824;BME280;3957;48.61947800;9.05303100;2022-08-21T00:30:25;96216.22;;;12.94;100.00
7824;BME280;3957;48.61947800;9.05303100;2022-08-21T00:31:46;96213.72;;;12.92;100.00
7824;BME280;3957;48.61947800;9.05303100;2022-08-21T00:33:08;96218.28;;;12.92;100.00
7824;BME280;3957;48.61947800;9.05303100;2022-08-21T00:34:29;96212.91;;;12.92;100.00
7824;BME280;3957;48.61947800;9.05303100;2022-08-21T00:35:50;96220.53;;;12.95;100.00
7824;BME280;3957;48.61947800;9.05303100;2022-08-21T00:37:10;96214.13;;;12.96;100.00
7824;BME280;3957;48.61947800;9.05303100;2022-08-21T00:38:32;96209.19;;;12.93;100.00
7824;BME280;3957;48.61947800;9.05303100;2022-08-21T00:39:53;96217.03;;;12.95;100.00
7824;BME280;3957;48.61947800;9.05303100;2022-08-21T00:41:13;96217.84;;;12.95;100.00
7824;BME280;3957;48.61947800;9.05303100;2022-08-21T00:42:34;96218.47;;;12.97;100.00
7824;BME280;3957;48.61947800;9.05303100;2022-08-21T00:43:55;96219.69;;;13.01;100.00
7824;BME280;3957;48.61947800;9.05303100;2022-08-21T00:45:16;96218.78;;;13.07;100.00
7824;BME280;3957;48.61947800;9.05303100;2022-08-21T00:46:38;96220.19;;;13.17;100.00
7824;BME280;3957;48.61947800;9.05303100;2022-08-21T00:47:58;96215.00;;;13.22;100.00
7824;BME280;3957;48.61947800;9.05303100;2022-08-21T00:49:19;96222.56;;;13.32;100.00
7824;BME280;3957;48.61947800;9.05303100;2022-08-21T00:50:50;96218.81;;;13.39;99.85
7824;BME280;3957;48.61947800;9.05303100;2022-08-21T00:52:18;96211.97;;;13.43;99.75
7824;BME280;3957;48.61947800;9.05303100;2022-08-21T00:53:42;96209.00;;;13.52;98.08
7824;BME280;3957;48.61947800;9.05303100;2022-08-21T00:55:07;96210.81;;;13.58;98.04
7824;BME280;3957;48.61947800;9.05303100;2022-08-21T00:56:28;96210.22;;;13.56;97.81
7824;BME280;3957;48.61947800;9.05303100;2022-08-21T00:57:52;96203.22;;;13.55;97.73
7824;BME280;3957;48.61947800;9.05303100;2022-08-21T00:59:15;96207.16;;;13.52;97.74
7824;BME280;3957;48.61947800;9.05303100;2022-08-21T01:00:39;96213.34;;;13.53;97.58
7824;BME280;3957;48.61947800;9.05303100;2022-08-21T01:02:01;96213.34;;;13.53;97.30
7824;BME280;3957;48.61947800;9.05303100;2022-08-21T01:03:23;96208.41;;;13.50;97.84
7824;BME280;3957;48.61947800;9.05303100;2022-08-21T01:04:45;96210.69;;;13.46;98.98
7824;BME280;3957;48.61947800;9.05303100;2022-08-21T01:06:07;96208.69;;;13.41;100.00
7824;BME280;3957;48.61947800;9.05303100;2022-08-21T01:07:29;96207.25;;;13.32;100.00
7824;BME280;3957;48.61947800;9.05303100;2022-08-21T01:08:50;96212.31;;;13.22;100.00
7824;BME280;3957;48.61947800;9.05303100;2022-08-21T01:10:12;96209.03;;;13.13;100.00
7824;BME280;3957;48.61947800;9.05303100;2022-08-21T01:11:33;96209.16;;;13.00;100.00
7824;BME280;3957;48.61947800;9.05303100;2022-08-21T01:12:56;96195.13;;;12.91;100.00
7824;BME280;3957;48.61947800;9.05303100;2022-08-21T01:14:18;96196.22;;;12.83;100.00
7824;BME280;3957;48.61947800;9.05303100;2022-08-21T01:15:43;96209.91;;;12.75;100.00
7824;BME280;3957;48.61947800;9.05303100;2022-08-21T01:17:05;96208.28;;;12.67;100.00
7824;BME280;3957;48.61947800;9.05303100;2022-08-21T01:18:28;96208.09;;;12.62;100.00
7824;BME280;3957;48.61947800;9.05303100;2022-08-21T01:19:49;96214.91;;;12.58;100.00
7824;BME280;3957;48.61947800;9.05303100;2022-08-21T01:21:20;96211.84;;;12.54;100.00
7824;BME280;3957;48.61947800;9.05303100;2022-08-21T01:22:41;96208.97;;;12.49;100.00
7824;BME280;3957;48.61947800;9.05303100;2022-08-21T01:24:02;96211.28;;;12.46;100.00
7824;BME280;3957;48.61947800;9.05303100;2022-08-21T01:25:23;96210.88;;;12.42;100.00
7824;BME280;3957;48.61947800;9.05303100;2022-08-21T01:26:44;96202.00;;;12.41;100.00
7824;BME280;3957;48.61947800;9.05303100;2022-08-21T01:28:11;96206.53;;;12.41;100.00
7824;BME280;3957;48.61947800;9.05303100;2022-08-21T01:29:49;96201.56;;;12.51;100.00
7824;BME280;3957;48.61947800;9.05303100;2022-08-21T01:31:13;96195.94;;;12.59;100.00
7824;BME280;3957;48.61947800;9.05303100;2022-08-21T01:32:35;96202.09;;;12.67;100.00
7824;BME280;3957;48.61947800;9.05303100;2022-08-21T01:33:56;96202.66;;;12.75;100.00
7824;BME280;3957;48.61947800;9.05303100;2022-08-21T01:35:18;96199.94;;;12.82;100.00
7824;BME280;3957;48.61947800;9.05303100;2022-08-21T01:36:40;96200.94;;;12.88;100.00
7824;BME280;3957;48.61947800;9.05303100;2022-08-21T01:38:00;96191.84;;;12.89;100.00
7824;BME280;3957;48.61947800;9.05303100;2022-08-21T01:39:21;96194.72;;;12.94;100.00
7824;BME280;3957;48.61947800;9.05303100;2022-08-21T01:40:42;96195.75;;;12.93;100.00
7824;BME280;3957;48.61947800;9.05303100;2022-08-21T01:42:04;96192.03;;;12.94;100.00
7824;BME280;3957;48.61947800;9.05303100;2022-08-21T01:43:25;96195.53;;;12.95;100.00
7824;BME280;3957;48.61947800;9.05303100;2022-08-21T01:44:46;96192.03;;;12.94;100.00
7824;BME280;3957;48.61947800;9.05303100;2022-08-21T01:46:07;96193.06;;;12.93;100.00
7824;BME280;3957;48.61947800;9.05303100;2022-08-21T01:47:28;96192.63;;;12.96;100.00
7824;BME280;3957;48.61947800;9.05303100;2022-08-21T01:48:49;96186.22;;;12.97;100.00
7824;BME280;3957;48.61947800;9.05303100;2022-08-21T01:50:12;96192.63;;;12.96;100.00
7824;BME280;3957;48.61947800;9.05303100;2022-08-21T01:51:33;96191.81;;;12.96;100.00
7824;BME280;3957;48.61947800;9.05303100;2022-08-21T01:52:54;96186.44;;;12.96;100.00
7824;BME280;3957;48.61947800;9.05303100;2022-08-21T01:54:15;96187.25;;;12.96;100.00
7824;BME280;3957;48.61947800;9.05303100;2022-08-21T01:55:35;96192.84;;;12.95;100.00
7824;BME280;3957;48.61947800;9.05303100;2022-08-21T01:56:58;96187.69;;;12.93;100.00
7824;BME280;3957;48.61947800;9.05303100;2022-08-21T01:58:20;96185.63;;;12.88;100.00
7824;BME280;3957;48.61947800;9.05303100;2022-08-21T01:59:41;96191.66;;;12.84;100.00
7824;BME280;3957;48.61947800;9.05303100;2022-08-21T02:01:03;96190.06;;;12.76;100.00
7824;BME280;3957;48.61947800;9.05303100;2022-08-21T02:02:24;96184.75;;;12.69;100.00
7824;BME280;3957;48.61947800;9.05303100;2022-08-21T02:03:45;96181.06;;;12.64;100.00
7824;BME280;3957;48.61947800;9.05303100;2022-08-21T02:05:07;96181.31;;;12.55;100.00
7824;BME280;3957;48.61947800;9.05303100;2022-08-21T02:06:28;96185.66;;;12.50;100.00
7824;BME280;3957;48.61947800;9.05303100;2022-08-21T02:07:51;96180.09;;;12.45;100.00
7824;BME280;3957;48.61947800;9.05303100;2022-08-21T02:09:13;96176.63;;;12.37;100.00
7824;BME280;3957;48.61947800;9.05303100;2022-08-21T02:10:34;96175.59;;;12.32;100.00
7824;BME280;3957;48.61947800;9.05303100;2022-08-21T02:11:55;96175.22;;;12.28;100.00
7824;BME280;3957;48.61947800;9.05303100;2022-08-21T02:13:17;96177.91;;;12.21;100.00
7824;BME280;3957;48.61947800;9.05303100;2022-08-21T02:14:38;96174.22;;;12.16;100.00
7824;BME280;3957;48.61947800;9.05303100;2022-08-21T02:15:59;96169.50;;;12.11;100.00
7824;BME280;3957;48.61947800;9.05303100;2022-08-21T02:17:20;96172.81;;;12.06;100.00
7824;BME280;3957;48.61947800;9.05303100;2022-08-21T02:18:41;96174.47;;;12.01;100.00
7824;BME280;3957;48.61947800;9.05303100;2022-08-21T02:20:03;96170.13;;;11.93;100.00
7824;BME280;3957;48.61947800;9.05303100;2022-08-21T02:21:24;96173.06;;;11.85;100.00
7824;BME280;3957;48.61947800;9.05303100;2022-08-21T02:22:44;96178.44;;;11.78;100.00
7824;BME280;3957;48.61947800;9.05303100;2022-08-21T02:24:06;96172.66;;;11.74;100.00
7824;BME280;3957;48.61947800;9.05303100;2022-08-21T02:25:28;96165.63;;;11.73;100.00
7824;BME280;3957;48.61947800;9.05303100;2022-08-21T02:26:49;96165.84;;;11.72;100.00
7824;BME280;3957;48.61947800;9.05303100;2022-08-21T02:28:12;96159.25;;;11.68;100.00
7824;BME280;3957;48.61947800;9.05303100;2022-08-21T02:29:33;96168.13;;;11.62;100.00
7824;BME280;3957;48.61947800;9.05303100;2022-08-21T02:30:55;96165.69;;;11.53;100.00
7824;BME280;3957;48.61947800;9.05303100;2022-08-21T02:32:16;96169.81;;;11.49;100.00
7824;BME280;3957;48.61947800;9.05303100;2022-08-21T02:33:37;96166.69;;;11.46;100.00
7824;BME280;3957;48.61947800;9.05303100;2022-08-21T02:34:57;96170.22;;;11.39;100.00
7824;BME280;3957;48.61947800;9.05303100;2022-08-21T02:36:18;96168.34;;;11.33;100.00
7824;BME280;3957;48.61947800;9.05303100;2022-08-21T02:37:55;96170.00;;;11.28;100.00
7824;BME280;3957;48.61947800;9.05303100;2022-08-21T02:39:16;96165.06;;;11.25;100.00
7824;BME280;3957;48.61947800;9.05303100;2022-08-21T02:40:40;96161.53;;;11.24;100.00
7824;BME280;3957;48.61947800;9.05303100;2022-08-21T02:42:01;96169.78;;;11.22;100.00
7824;BME280;3957;48.61947800;9.05303100;2022-08-21T02:43:24;96162.59;;;11.23;100.00
7824;BME280;3957;48.61947800;9.05303100;2022-08-21T02:44:46;96160.94;;;11.22;100.00
7824;BME280;3957;48.61947800;9.05303100;2022-08-21T02:46:08;96163.41;;;11.23;100.00
7824;BME280;3957;48.61947800;9.05303100;2022-08-21T02:47:29;96165.69;;;11.20;100.00
7824;BME280;3957;48.61947800;9.05303100;2022-08-21T02:48:50;96159.50;;;11.19;100.00
7824;BME280;3957;48.61947800;9.05303100;2022-08-21T02:50:10;96162.81;;;11.21;100.00
7824;BME280;3957;48.61947800;9.05303100;2022-08-21T02:51:31;96161.97;;;11.21;100.00
7824;BME280;3957;48.61947800;9.05303100;2022-08-21T02:52:52;96160.50;;;11.18;100.00
7824;BME280;3957;48.61947800;9.05303100;2022-08-21T02:54:13;96163.41;;;11.17;100.00
7824;BME280;3957;48.61947800;9.05303100;2022-08-21T02:55:36;96165.47;;;11.15;100.00
7824;BME280;3957;48.61947800;9.05303100;2022-08-21T02:56:57;96163.41;;;11.17;100.00
7824;BME280;3957;48.61947800;9.05303100;2022-08-21T02:58:22;96166.50;;;11.20;100.00
7824;BME280;3957;48.61947800;9.05303100;2022-08-21T02:59:43;96164.22;;;11.24;100.00
7824;BME280;3957;48.61947800;9.05303100;2022-08-21T03:01:05;96161.16;;;11.27;100.00
7824;BME280;3957;48.61947800;9.05303100;2022-08-21T03:02:29;96165.06;;;11.31;100.00
7824;BME280;3957;48.61947800;9.05303100;2022-08-21T03:03:50;96167.13;;;11.36;100.00
7824;BME280;3957;48.61947800;9.05303100;2022-08-21T03:05:11;96159.91;;;11.36;100.00
7824;BME280;3957;48.61947800;9.05303100;2022-08-21T03:06:33;96162.19;;;11.39;100.00
7824;BME280;3957;48.61947800;9.05303100;2022-08-21T03:07:54;96167.53;;;11.39;100.00
7824;BME280;3957;48.61947800;9.05303100;2022-08-21T03:09:15;96166.50;;;11.40;100.00
7824;BME280;3957;48.61947800;9.05303100;2022-08-21T03:10:38;96164.88;;;11.39;100.00
7824;BME280;3957;48.61947800;9.05303100;2022-08-21T03:12:00;96167.13;;;11.36;100.00
7824;BME280;3957;48.61947800;9.05303100;2022-08-21T03:13:21;96161.34;;;11.32;100.00
7824;BME280;3957;48.61947800;9.05303100;2022-08-21T03:14:42;96160.75;;;11.30;100.00
7824;BME280;3957;48.61947800;9.05303100;2022-08-21T03:16:03;96158.69;;;11.26;100.00
7824;BME280;3957;48.61947800;9.05303100;2022-08-21T03:17:25;96159.72;;;11.25;100.00
7824;BME280;3957;48.61947800;9.05303100;2022-08-21T03:18:46;96164.44;;;11.22;100.00
7824;BME280;3957;48.61947800;9.05303100;2022-08-21T03:20:08;96162.81;;;11.21;100.00
7824;BME280;3957;48.61947800;9.05303100;2022-08-21T03:21:29;96158.47;;;11.20;100.00
7824;BME280;3957;48.61947800;9.05303100;2022-08-21T03:22:52;96159.50;;;11.19;100.00
7824;BME280;3957;48.61947800;9.05303100;2022-08-21T03:24:13;96161.16;;;11.20;100.00
7824;BME280;3957;48.61947800;9.05303100;2022-08-21T03:25:35;96160.94;;;11.22;100.00
7824;BME280;3957;48.61947800;9.05303100;2022-08-21T03:26:55;96160.13;;;11.21;100.00
7824;BME280;3957;48.61947800;9.05303100;2022-08-21T03:28:19;96159.91;;;11.16;100.00
7824;BME280;3957;48.61947800;9.05303100;2022-08-21T03:29:40;96166.50;;;11.14;100.00
7824;BME280;3957;48.61947800;9.05303100;2022-08-21T03:31:01;96164.44;;;11.09;100.00
7824;BME280;3957;48.61947800;9.05303100;2022-08-21T03:32:22;96160.53;;;11.05;100.00
7824;BME280;3957;48.61947800;9.05303100;2022-08-21T03:33:44;96163.59;;;11.02;100.00
7824;BME280;3957;48.61947800;9.05303100;2022-08-21T03:35:05;96158.88;;;11.04;100.00
7824;BME280;3957;48.61947800;9.05303100;2022-08-21T03:36:25;96158.44;;;11.00;100.00
7824;BME280;3957;48.61947800;9.05303100;2022-08-21T03:37:47;96164.84;;;10.99;100.00
7824;BME280;3957;48.61947800;9.05303100;2022-08-21T03:39:07;96158.88;;;10.97;100.00
7824;BME280;3957;48.61947800;9.05303100;2022-08-21T03:40:28;96166.47;;;10.94;100.00
7824;BME280;3957;48.61947800;9.05303100;2022-08-21T03:41:49;96172.84;;;10.86;100.00
7824;BME280;3957;48.61947800;9.05303100;2022-08-21T03:43:10;96169.75;;;10.82;100.00
7824;BME280;3957;48.61947800;9.05303100;2022-08-21T03:44:32;96165.84;;;10.78;100.00
7824;BME280;3957;48.61947800;9.05303100;2022-08-21T03:45:53;96169.13;;;10.74;100.00
7824;BME280;3957;48.61947800;9.05303100;2022-08-21T03:47:14;96170.75;;;10.68;100.00
7824;BME280;3957;48.61947800;9.05303100;2022-08-21T03:48:36;96175.69;;;10.64;100.00
7824;BME280;3957;48.61947800;9.05303100;2022-08-21T03:49:57;96168.88;;;10.62;100.00
7824;BME280;3957;48.61947800;9.05303100;2022-08-21T03:51:18;96177.56;;;10.64;100.00
7824;BME280;3957;48.61947800;9.05303100;2022-08-21T03:52:39;96172.59;;;10.61;100.00
7824;BME280;3957;48.61947800;9.05303100;2022-08-21T03:54:00;96180.63;;;10.61;100.00
7824;BME280;3957;48.61947800;9.05303100;2022-08-21T03:55:21;96183.91;;;10.56;100.00
7824;BME280;3957;48.61947800;9.05303100;2022-08-21T03:56:42;96173.59;;;10.53;100.00
7824;BME280;3957;48.61947800;9.05303100;2022-08-21T03:58:03;96171.13;;;10.51;100.00
7824;BME280;3957;48.61947800;9.05303100;2022-08-21T03:59:24;96176.25;;;10.46;100.00
7824;BME280;3957;48.61947800;9.05303100;2022-08-21T04:00:47;96184.28;;;10.46;100.00
7824;BME280;3957;48.61947800;9.05303100;2022-08-21T04:02:10;96185.28;;;10.45;100.00
7824;BME280;3957;48.61947800;9.05303100;2022-08-21T04:03:31;96180.34;;;10.42;100.00
7824;BME280;3957;48.61947800;9.05303100;2022-08-21T04:04:52;96174.41;;;10.40;100.00
7824;BME280;3957;48.61947800;9.05303100;2022-08-21T04:06:12;96177.28;;;10.38;100.00
7824;BME280;3957;48.61947800;9.05303100;2022-08-21T04:07:33;96191.66;;;10.37;100.00
7824;BME280;3957;48.61947800;9.05303100;2022-08-21T04:08:54;96187.53;;;10.35;100.00
7824;BME280;3957;48.61947800;9.05303100;2022-08-21T04:10:15;96186.25;;;10.31;100.00
7824;BME280;3957;48.61947800;9.05303100;2022-08-21T04:11:36;96182.72;;;10.24;100.00
7824;BME280;3957;48.61947800;9.05303100;2022-08-21T04:12:57;96188.66;;;10.19;100.00
7824;BME280;3957;48.61947800;9.05303100;2022-08-21T04:14:18;96190.28;;;10.13;100.00
7824;BME280;3957;48.61947800;9.05303100;2022-08-21T04:15:38;96190.69;;;10.10;100.00
7824;BME280;3957;48.61947800;9.05303100;2022-08-21T04:16:59;96192.31;;;10.04;100.00
7824;BME280;3957;48.61947800;9.05303100;2022-08-21T04:18:20;96189.19;;;10.01;100.00
7824;BME280;3957;48.61947800;9.05303100;2022-08-21T04:19:41;96188.97;;;9.96;100.00
7824;BME280;3957;48.61947800;9.05303100;2022-08-21T04:21:02;96194.50;;;9.94;100.00
7824;BME280;3957;48.61947800;9.05303100;2022-08-21T04:22:25;96189.59;;;9.98;100.00
7824;BME280;3957;48.61947800;9.05303100;2022-08-21T04:23:46;96192.69;;;10.01;100.00
7824;BME280;3957;48.61947800;9.05303100;2022-08-21T04:25:07;96192.09;;;10.06;100.00
7824;BME280;3957;48.61947800;9.05303100;2022-08-21T04:26:28;96195.22;;;10.10;100.00
7824;BME280;3957;48.61947800;9.05303100;2022-08-21T04:27:49;96199.34;;;10.12;100.00
7824;BME280;3957;48.61947800;9.05303100;2022-08-21T04:29:10;96200.97;;;10.13;100.00
7824;BME280;3957;48.61947800;9.05303100;2022-08-21T04:30:31;96193.78;;;10.14;100.00
7824;BME280;3957;48.61947800;9.05303100;2022-08-21T04:31:52;96203.66;;;10.13;100.00
7824;BME280;3957;48.61947800;9.05303100;2022-08-21T04:33:13;96195.00;;;10.11;100.00
7824;BME280;3957;48.61947800;9.05303100;2022-08-21T04:34:34;96203.03;;;10.11;100.00
7824;BME280;3957;48.61947800;9.05303100;2022-08-21T04:35:55;96206.72;;;10.10;100.00
7824;BME280;3957;48.61947800;9.05303100;2022-08-21T04:37:16;96210.41;;;10.09;100.00
7824;BME280;3957;48.61947800;9.05303100;2022-08-21T04:38:37;96207.75;;;10.09;100.00
7824;BME280;3957;48.61947800;9.05303100;2022-08-21T04:39:58;96212.06;;;10.10;100.00
7824;BME280;3957;48.61947800;9.05303100;2022-08-21T04:41:18;96213.72;;;10.11;100.00
7824;BME280;3957;48.61947800;9.05303100;2022-08-21T04:42:47;96219.50;;;10.15;100.00
7824;BME280;3957;48.61947800;9.05303100;2022-08-21T04:44:09;96214.59;;;10.18;100.00
7824;BME280;3957;48.61947800;9.05303100;2022-08-21T04:45:40;96212.72;;;10.19;100.00
7824;BME280;3957;48.61947800;9.05303100;2022-08-21T04:47:02;96215.63;;;10.24;100.00
7824;BME280;3957;48.61947800;9.05303100;2022-08-21T04:48:23;96215.66;;;10.31;100.00
7824;BME280;3957;48.61947800;9.05303100;2022-08-21T04:49:44;96215.94;;;10.36;100.00
7824;BME280;3957;48.61947800;9.05303100;2022-08-21T04:51:22;96221.31;;;10.43;100.00
7824;BME280;3957;48.61947800;9.05303100;2022-08-21T04:52:45;96226.69;;;10.49;100.00
7824;BME280;3957;48.61947800;9.05303100;2022-08-21T04:54:10;96225.47;;;10.59;100.00
7824;BME280;3957;48.61947800;9.05303100;2022-08-21T04:55:32;96219.94;;;10.60;100.00
7824;BME280;3957;48.61947800;9.05303100;2022-08-21T04:57:00;96224.88;;;10.63;100.00
7824;BME280;3957;48.61947800;9.05303100;2022-08-21T04:58:24;96220.16;;;10.65;100.00
7824;BME280;3957;48.61947800;9.05303100;2022-08-21T04:59:48;96220.78;;;10.67;100.00
7824;BME280;3957;48.61947800;9.05303100;2022-08-21T05:01:15;96221.63;;;10.68;100.00
7824;BME280;3957;48.61947800;9.05303100;2022-08-21T05:02:37;96218.31;;;10.72;100.00
7824;BME280;3957;48.61947800;9.05303100;2022-08-21T05:03:59;96221.63;;;10.75;100.00
7824;BME280;3957;48.61947800;9.05303100;2022-08-21T05:05:21;96222.47;;;10.82;100.00
7824;BME280;3957;48.61947800;9.05303100;2022-08-21T05:06:45;96216.09;;;10.83;100.00
7824;BME280;3957;48.61947800;9.05303100;2022-08-21T05:08:11;96218.97;;;10.88;100.00
7824;BME280;3957;48.61947800;9.05303100;2022-08-21T05:09:33;96218.19;;;10.94;100.00
7824;BME280;3957;48.61947800;9.05303100;2022-08-21T05:10:54;96220.44;;;10.97;100.00
7824;BME280;3957;48.61947800;9.05303100;2022-08-21T05:12:15;96222.72;;;11.00;100.00
7824;BME280;3957;48.61947800;9.05303100;2022-08-21T05:13:37;96217.16;;;11.09;100.00
7824;BME280;3957;48.61947800;9.05303100;2022-08-21T05:14:57;96223.56;;;11.14;100.00
7824;BME280;3957;48.61947800;9.05303100;2022-08-21T05:16:18;96221.09;;;11.19;100.00
7824;BME280;3957;48.61947800;9.05303100;2022-08-21T05:17:42;96223.56;;;11.21;100.00
7824;BME280;3957;48.61947800;9.05303100;2022-08-21T05:19:06;96221.91;;;11.27;100.00
7824;BME280;3957;48.61947800;9.05303100;2022-08-21T05:20:28;96216.56;;;11.33;100.00
7824;BME280;3957;48.61947800;9.05303100;2022-08-21T05:21:49;96223.81;;;11.39;100.00
7824;BME280;3957;48.61947800;9.05303100;2022-08-21T05:23:11;96227.31;;;11.47;100.00
7824;BME280;3957;48.61947800;9.05303100;2022-08-21T05:24:32;96222.56;;;11.55;100.00
7824;BME280;3957;48.61947800;9.05303100;2022-08-21T05:25:54;96225.44;;;11.67;100.00
7824;BME280;3957;48.61947800;9.05303100;2022-08-21T05:27:16;96229.53;;;11.83;100.00
7824;BME280;3957;48.61947800;9.05303100;2022-08-21T05:28:36;96226.88;;;12.03;100.00
7824;BME280;3957;48.61947800;9.05303100;2022-08-21T05:29:58;96235.25;;;12.34;100.00
7824;BME280;3957;48.61947800;9.05303100;2022-08-21T05:31:18;96235.06;;;12.81;100.00
7824;BME280;3957;48.61947800;9.05303100;2022-08-21T05:32:39;96233.53;;;13.37;100.00
7824;BME280;3957;48.61947800;9.05303100;2022-08-21T05:34:00;96232.72;;;13.87;100.00
7824;BME280;3957;48.61947800;9.05303100;2022-08-21T05:35:21;96231.63;;;14.32;100.00
7824;BME280;3957;48.61947800;9.05303100;2022-08-21T05:36:41;96238.75;;;14.82;100.00
7824;BME280;3957;48.61947800;9.05303100;2022-08-21T05:38:02;96235.50;;;15.22;100.00
7824;BME280;3957;48.61947800;9.05303100;2022-08-21T05:39:23;96232.84;;;15.88;100.00
7824;BME280;3957;48.61947800;9.05303100;2022-08-21T05:40:45;96240.91;;;16.59;98.41
7824;BME280;3957;48.61947800;9.05303100;2022-08-21T05:42:07;96232.00;;;17.28;93.64
7824;BME280;3957;48.61947800;9.05303100;2022-08-21T05:43:27;96235.72;;;17.90;86.50
7824;BME280;3957;48.61947800;9.05303100;2022-08-21T05:44:48;96235.31;;;18.32;81.59
7824;BME280;3957;48.61947800;9.05303100;2022-08-21T05:46:09;96233.94;;;18.91;79.17
7824;BME280;3957;48.61947800;9.05303100;2022-08-21T05:47:30;96245.25;;;19.37;77.20
7824;BME280;3957;48.61947800;9.05303100;2022-08-21T05:48:50;96240.28;;;19.83;73.50
7824;BME280;3957;48.61947800;9.05303100;2022-08-21T05:50:11;96237.88;;;20.25;70.92
7824;BME280;3957;48.61947800;9.05303100;2022-08-21T05:51:32;96245.94;;;20.57;68.42
7824;BME280;3957;48.61947800;9.05303100;2022-08-21T05:52:52;96242.84;;;20.86;66.84
7824;BME280;3957;48.61947800;9.05303100;2022-08-21T05:54:13;96241.84;;;21.13;64.84
7824;BME280;3957;48.61947800;9.05303100;2022-08-21T05:55:35;96241.34;;;21.26;63.77
7824;BME280;3957;48.61947800;9.05303100;2022-08-21T05:56:57;96243.81;;;21.33;62.77
7824;BME280;3957;48.61947800;9.05303100;2022-08-21T05:58:20;96244.09;;;21.41;62.42
7824;BME280;3957;48.61947800;9.05303100;2022-08-21T05:59:41;96244.69;;;21.59;62.51
7824;BME280;3957;48.61947800;9.05303100;2022-08-21T06:01:03;96247.72;;;21.78;62.18
7824;BME280;3957;48.61947800;9.05303100;2022-08-21T06:02:24;96242.53;;;21.87;60.91
7824;BME280;3957;48.61947800;9.05303100;2022-08-21T06:03:45;96246.63;;;21.95;60.76
7824;BME280;3957;48.61947800;9.05303100;2022-08-21T06:05:06;96241.16;;;21.84;61.00
7824;BME280;3957;48.61947800;9.05303100;2022-08-21T06:06:27;96246.59;;;21.79;61.72
7824;BME280;3957;48.61947800;9.05303100;2022-08-21T06:07:48;96249.91;;;21.71;60.92
7824;BME280;3957;48.61947800;9.05303100;2022-08-21T06:09:09;96249.63;;;21.67;60.51
7824;BME280;3957;48.61947800;9.05303100;2022-08-21T06:10:30;96248.53;;;21.68;60.77
7824;BME280;3957;48.61947800;9.05303100;2022-08-21T06:11:51;96248.78;;;21.62;61.62
7824;BME280;3957;48.61947800;9.05303100;2022-08-21T06:13:12;96253.66;;;21.49;63.92
7824;BME280;3957;48.61947800;9.05303100;2022-08-21T06:14:34;96250.00;;;21.13;65.55
7824;BME280;3957;48.61947800;9.05303100;2022-08-21T06:16:21;96247.16;;;20.77;66.43
7824;BME280;3957;48.61947800;9.05303100;2022-08-21T06:17:42;96248.72;;;20.19;69.21
7824;BME280;3957;48.61947800;9.05303100;2022-08-21T06:19:03;96255.38;;;20.01;68.34
7824;BME280;3957;48.61947800;9.05303100;2022-08-21T06:20:24;96252.72;;;19.79;69.45
7824;BME280;3957;48.61947800;9.05303100;2022-08-21T06:21:46;96246.72;;;19.45;70.28
7824;BME280;3957;48.61947800;9.05303100;2022-08-21T06:23:06;96245.53;;;19.35;70.79
7824;BME280;3957;48.61947800;9.05303100;2022-08-21T06:24:28;96249.66;;;19.16;72.14
7824;BME280;3957;48.61947800;9.05303100;2022-08-21T06:25:48;96252.31;;;19.11;72.39
7824;BME280;3957;48.61947800;9.05303100;2022-08-21T06:27:09;96247.34;;;19.02;72.76
7824;BME280;3957;48.61947800;9.05303100;2022-08-21T06:28:31;96249.84;;;19.09;73.04